createdAt,value
2022-12-17T00:01:47.068Z,100263.06
2022-12-17T00:07:07.160Z,100324.09
2022-12-17T00:12:27.284Z,100265.88
2022-12-17T00:17:48.496Z,100279.97
2022-12-17T00:23:17.230Z,100286.69
2022-12-17T00:28:37.467Z,100242.72
2022-12-17T00:33:57.702Z,100232.16
2022-12-17T00:39:17.819Z,100243.41
2022-12-17T00:44:38.253Z,100254.31
2022-12-17T00:49:58.315Z,100259.84
2022-12-17T00:55:18.718Z,100219.72
2022-12-17T01:00:38.922Z,100249.22
2022-12-17T01:05:59.126Z,100236.59
2022-12-17T01:11:20.747Z,100284.44
2022-12-17T01:16:41.362Z,100267.00
2022-12-17T01:22:01.715Z,100318.88
2022-12-17T01:27:21.966Z,100280.00
2022-12-17T01:32:42.060Z,100319.44
2022-12-17T01:38:02.105Z,100347.84
2022-12-17T01:43:29.799Z,100352.88
2022-12-17T01:48:56.738Z,100298.78
2022-12-17T01:54:18.424Z,100352.22
2022-12-17T01:59:44.380Z,100348.38
2022-12-17T02:05:04.693Z,100356.84
2022-12-17T02:10:43.838Z,100343.13
2022-12-17T02:16:16.515Z,100332.88
2022-12-17T02:21:38.706Z,100358.31
2022-12-17T02:27:02.425Z,100352.28
2022-12-17T02:32:43.670Z,100378.84
2022-12-17T02:38:08.420Z,100319.94
2022-12-17T02:43:30.148Z,100273.41
2022-12-17T02:48:50.895Z,100367.53
2022-12-17T02:54:12.013Z,100364.94
2022-12-17T02:59:32.873Z,100375.47
2022-12-17T03:04:53.008Z,100341.16
2022-12-17T03:10:13.213Z,100389.53
2022-12-17T03:15:33.570Z,100403.59
2022-12-17T03:20:54.119Z,100363.25
2022-12-17T03:26:18.792Z,100342.88
2022-12-17T03:31:39.270Z,100361.19
2022-12-17T03:36:59.642Z,100350.28
2022-12-17T03:42:21.662Z,100413.16
2022-12-17T03:47:41.802Z,100445.75
2022-12-17T03:53:01.969Z,100410.31
2022-12-17T03:58:22.110Z,100391.28
2022-12-17T04:03:42.229Z,100356.28
2022-12-17T04:09:02.375Z,100351.81
2022-12-17T04:14:22.483Z,100354.09
2022-12-17T04:19:42.616Z,100356.09
2022-12-17T04:25:02.765Z,100370.72
2022-12-17T04:30:23.418Z,100359.66
2022-12-17T04:35:43.680Z,100406.19
2022-12-17T04:41:03.511Z,100341.75
2022-12-17T04:46:23.765Z,100404.88
2022-12-17T04:51:44.251Z,100332.69
2022-12-17T04:57:04.967Z,100428.84
2022-12-17T05:02:25.235Z,100403.41
2022-12-17T05:07:45.288Z,100420.81
2022-12-17T05:13:05.385Z,100418.69
2022-12-17T05:18:26.880Z,100407.56
2022-12-17T05:23:47.062Z,100397.09
2022-12-17T05:29:12.462Z,100449.88
2022-12-17T05:34:35.650Z,100403.28
2022-12-17T05:39:55.775Z,100374.00
2022-12-17T05:45:15.815Z,100320.25
2022-12-17T05:50:35.918Z,100358.22
2022-12-17T05:55:56.348Z,100327.94
2022-12-17T06:01:22.357Z,100350.69
2022-12-17T06:06:43.199Z,100418.53
2022-12-17T06:12:03.436Z,100460.19
2022-12-17T06:17:23.494Z,100401.31
2022-12-17T06:22:43.779Z,100411.47
2022-12-17T06:28:03.939Z,100382.56
2022-12-17T06:33:29.546Z,100402.72
2022-12-17T06:38:49.711Z,100474.66
2022-12-17T06:44:09.706Z,100490.06
2022-12-17T06:49:29.772Z,100488.78
2022-12-17T06:54:49.807Z,100472.09
2022-12-17T07:00:10.124Z,100421.53
2022-12-17T07:05:30.732Z,100380.75
2022-12-17T07:10:51.128Z,100355.47
2022-12-17T07:16:15.179Z,100477.00
2022-12-17T07:21:35.488Z,100376.19
2022-12-17T07:26:55.806Z,100425.75
2022-12-17T07:32:15.907Z,100409.41
2022-12-17T07:37:36.039Z,100446.75
2022-12-17T07:42:58.282Z,100457.38
2022-12-17T07:48:18.362Z,100509.16
2022-12-17T07:53:38.909Z,100518.28
2022-12-17T07:58:59.182Z,100518.88
2022-12-17T08:04:19.311Z,100441.44
2022-12-17T08:09:43.995Z,100555.75
2022-12-17T08:15:04.317Z,100577.69
2022-12-17T08:20:25.128Z,100542.69
2022-12-17T08:25:45.223Z,100484.47
2022-12-17T08:31:08.623Z,100502.88
2022-12-17T08:36:29.174Z,100464.44
2022-12-17T08:41:54.230Z,100442.63
2022-12-17T08:47:15.549Z,100464.78
2022-12-17T08:52:35.550Z,100600.94
2022-12-17T08:57:55.835Z,100487.53
2022-12-17T09:03:17.936Z,100492.63
2022-12-17T09:08:38.459Z,100518.91
2022-12-17T09:13:58.589Z,100507.38
2022-12-17T09:19:18.685Z,100546.66
2022-12-17T09:24:38.915Z,100508.97
2022-12-17T09:29:59.086Z,100488.88
2022-12-17T09:35:19.203Z,100553.88
2022-12-17T09:40:43.392Z,100532.53
2022-12-17T09:46:21.261Z,100638.22
2022-12-17T09:51:47.909Z,100532.91
2022-12-17T09:57:09.114Z,100650.44
2022-12-17T10:02:38.525Z,100551.41
2022-12-17T10:07:59.302Z,100616.22
2022-12-17T10:13:19.451Z,100477.97
2022-12-17T10:18:39.533Z,100551.06
2022-12-17T10:23:59.537Z,100558.38
2022-12-17T10:29:35.575Z,100658.69
2022-12-17T10:35:03.343Z,100535.13
2022-12-17T10:40:38.634Z,100627.00
2022-12-17T10:45:59.161Z,100477.72
2022-12-17T10:51:19.358Z,100553.31
2022-12-17T10:56:43.537Z,100638.13
2022-12-17T11:06:46.173Z,100522.75
2022-12-17T11:12:08.050Z,100583.44
2022-12-17T11:17:35.076Z,100458.91
2022-12-17T11:23:17.308Z,100573.97
2022-12-17T11:28:43.155Z,100614.09
2022-12-17T11:34:15.530Z,100584.94
2022-12-17T11:39:59.670Z,100539.69
2022-12-17T11:45:35.052Z,100515.59
2022-12-17T11:51:04.585Z,100675.91
2022-12-17T11:56:31.287Z,100684.22
2022-12-17T12:02:24.411Z,100630.16
2022-12-17T12:08:05.216Z,100612.78
2022-12-17T12:13:44.030Z,100574.94
2022-12-17T12:19:09.954Z,100574.09
2022-12-17T12:25:05.238Z,100541.94
2022-12-17T12:30:36.590Z,100628.00
2022-12-17T12:35:58.055Z,100568.88
2022-12-17T12:41:27.466Z,100580.72
2022-12-17T12:47:10.874Z,100586.50
2022-12-17T12:52:37.615Z,100553.94
2022-12-17T12:58:17.894Z,100640.16
2022-12-17T13:03:45.780Z,100659.47
2022-12-17T13:08:50.262Z,100536.16
2022-12-17T13:13:56.350Z,100504.25
2022-12-17T13:19:03.942Z,100570.97
2022-12-17T13:24:22.493Z,100537.44
2022-12-17T13:29:36.035Z,100590.34
2022-12-17T13:34:40.574Z,100517.06
2022-12-17T13:40:11.695Z,100612.00
2022-12-17T13:45:19.122Z,100592.28
2022-12-17T13:50:34.441Z,100530.34
2022-12-17T13:55:38.285Z,100584.06
2022-12-17T14:00:39.966Z,100603.44
2022-12-17T14:05:44.687Z,100550.25
2022-12-17T14:11:14.494Z,100626.63
2022-12-17T14:16:18.702Z,100581.66
2022-12-17T14:21:21.699Z,100605.34
2022-12-17T14:26:23.329Z,100567.31
2022-12-17T14:31:30.517Z,100577.66
2022-12-17T14:36:35.758Z,100599.97
2022-12-17T14:42:08.198Z,100613.78
2022-12-17T14:47:23.603Z,100537.78
2022-12-17T14:52:36.375Z,100538.41
2022-12-17T14:57:37.976Z,100579.63
2022-12-17T15:02:39.903Z,100649.97
2022-12-17T15:07:41.816Z,100608.97
2022-12-17T15:12:44.064Z,100642.56
2022-12-17T15:17:45.647Z,100527.03
2022-12-17T15:22:47.733Z,100574.53
2022-12-17T15:27:49.355Z,100602.91
2022-12-17T15:32:50.942Z,100624.53
2022-12-17T15:37:52.953Z,100672.69
2022-12-17T15:43:13.094Z,100586.44
2022-12-17T15:48:17.486Z,100573.59
2022-12-17T15:53:19.061Z,100521.06
2022-12-17T15:58:20.744Z,100588.31
2022-12-17T16:03:22.744Z,100566.78
2022-12-17T16:08:24.382Z,100605.59
2022-12-17T16:13:26.091Z,100642.84
2022-12-17T16:18:27.654Z,100625.56
2022-12-17T16:23:32.205Z,100591.06
2022-12-17T16:28:35.791Z,100696.97
2022-12-17T16:33:40.613Z,100567.84
2022-12-17T16:38:50.634Z,100555.97
2022-12-17T16:43:52.415Z,100522.50
2022-12-17T16:48:55.247Z,100561.78
2022-12-17T16:53:58.472Z,100545.38
2022-12-17T16:59:04.472Z,100625.50
2022-12-17T17:04:08.555Z,100549.91
2022-12-17T17:09:10.742Z,100685.81
2022-12-17T17:14:12.647Z,100549.72
2022-12-17T17:19:15.180Z,100659.47
2022-12-17T17:24:21.393Z,100606.97
2022-12-17T17:29:23.975Z,100610.97
2022-12-17T17:34:25.604Z,100551.22
2022-12-17T17:39:27.547Z,100673.78
2022-12-17T17:44:29.230Z,100657.72
2022-12-17T17:49:30.930Z,100605.97
2022-12-17T17:54:32.674Z,100569.59
2022-12-17T17:59:34.637Z,100636.06
2022-12-17T18:04:36.551Z,100693.91
2022-12-17T18:09:38.248Z,100758.34
2022-12-17T18:14:46.684Z,100613.84
2022-12-17T18:19:59.478Z,100797.00
2022-12-17T18:25:01.222Z,100677.44
2022-12-17T18:30:02.980Z,100735.28
2022-12-17T18:35:04.902Z,100780.97
2022-12-17T18:40:07.812Z,100660.38
2022-12-17T18:45:14.438Z,100696.91
2022-12-17T18:50:16.076Z,100629.34
2022-12-17T18:55:17.748Z,100726.91
2022-12-17T19:00:19.397Z,100678.22
2022-12-17T19:05:21.135Z,100681.50
2022-12-17T19:10:22.770Z,100686.28
2022-12-17T19:15:24.345Z,100631.31
2022-12-17T19:20:26.018Z,100631.75
2022-12-17T19:25:27.628Z,100678.53
2022-12-17T19:30:29.271Z,100708.38
2022-12-17T19:35:30.861Z,100646.03
2022-12-17T19:40:35.003Z,100607.06
2022-12-17T19:45:36.681Z,100768.16
2022-12-17T19:50:38.270Z,100637.44
2022-12-17T19:55:39.891Z,100747.47
2022-12-17T20:00:41.642Z,100776.16
2022-12-17T20:05:44.906Z,100679.53
2022-12-17T20:10:46.559Z,100698.91
2022-12-17T20:15:48.276Z,100676.38
2022-12-17T20:20:49.894Z,100669.22
2022-12-17T20:26:05.030Z,100752.47
2022-12-17T20:31:07.258Z,100778.78
2022-12-17T20:36:12.095Z,100671.25
2022-12-17T20:41:16.818Z,100797.91
2022-12-17T20:46:20.450Z,100684.94
2022-12-17T20:51:25.054Z,100666.50
2022-12-17T20:56:29.823Z,100795.13
2022-12-17T21:01:33.795Z,100644.09
2022-12-17T21:06:47.193Z,100761.88
2022-12-17T21:11:49.064Z,100828.56
2022-12-17T21:16:50.800Z,100708.56
2022-12-17T21:21:52.524Z,100694.75
2022-12-17T21:26:54.155Z,100765.41
2022-12-17T21:31:55.834Z,100698.28
2022-12-17T21:36:57.635Z,100750.56
2022-12-17T21:42:18.083Z,100754.56
2022-12-17T21:47:19.735Z,100831.91
2022-12-17T21:52:21.342Z,100859.97
2022-12-17T21:57:22.962Z,100768.47
2022-12-17T22:02:24.805Z,100798.09
2022-12-17T22:07:27.300Z,100800.28
2022-12-17T22:12:48.575Z,100853.25
2022-12-17T22:17:50.862Z,100725.91
2022-12-17T22:22:52.507Z,100799.63
2022-12-17T22:27:54.256Z,100749.47
2022-12-17T22:33:04.724Z,100680.03
2022-12-17T22:40:22.040Z,100720.47
2022-12-17T22:44:38.997Z,100743.81
2022-12-17T22:48:58.723Z,100785.91
2022-12-17T22:54:02.455Z,100885.94
2022-12-17T22:59:05.397Z,100731.28
2022-12-17T23:04:07.120Z,100710.66
2022-12-17T23:09:08.892Z,100836.38
2022-12-17T23:14:10.713Z,100843.63
2022-12-17T23:19:13.428Z,100743.19
2022-12-17T23:24:15.062Z,100836.84
2022-12-17T23:29:19.639Z,100902.13
2022-12-17T23:34:21.577Z,100735.94
2022-12-17T23:39:23.330Z,100837.59
2022-12-17T23:44:25.046Z,100763.72
2022-12-17T23:49:26.725Z,100774.72
2022-12-17T23:54:28.387Z,100719.38
2022-12-17T23:59:30.005Z,100736.84
